createdAt,value
2022-09-09T00:01:10.289Z,99.90
2022-09-09T00:03:47.429Z,99.90
2022-09-09T00:06:23.398Z,99.90
2022-09-09T00:09:03.312Z,99.90
2022-09-09T00:11:42.457Z,99.90
2022-09-09T00:14:17.691Z,99.90
2022-09-09T00:16:52.578Z,99.90
2022-09-09T00:19:25.607Z,99.90
2022-09-09T00:22:03.358Z,99.90
2022-09-09T00:24:40.966Z,99.90
2022-09-09T00:27:18.401Z,99.90
2022-09-09T00:29:54.102Z,99.90
2022-09-09T00:32:23.359Z,99.90
2022-09-09T00:34:55.762Z,99.90
2022-09-09T00:37:26.524Z,99.90
2022-09-09T00:40:00.126Z,99.90
2022-09-09T00:42:43.808Z,99.90
2022-09-09T00:45:32.592Z,99.90
2022-09-09T00:48:05.969Z,99.90
2022-09-09T00:50:46.941Z,99.90
2022-09-09T00:53:28.829Z,99.90
2022-09-09T00:56:08.254Z,99.90
2022-09-09T00:58:38.015Z,99.90
2022-09-09T01:01:08.837Z,99.90
2022-09-09T01:03:39.339Z,99.90
2022-09-09T01:06:17.320Z,99.90
2022-09-09T01:09:14.632Z,99.90
2022-09-09T01:11:57.609Z,99.90
2022-09-09T01:14:37.464Z,99.90
2022-09-09T01:17:18.329Z,99.90
2022-09-09T01:20:01.165Z,99.90
2022-09-09T01:22:37.453Z,99.90
2022-09-09T01:25:28.897Z,99.90
2022-09-09T01:28:02.726Z,99.90
2022-09-09T01:30:31.331Z,99.90
2022-09-09T01:33:01.595Z,99.90
2022-09-09T01:35:41.833Z,99.90
2022-09-09T01:38:10.803Z,99.90
2022-09-09T01:40:39.324Z,99.90
2022-09-09T01:43:09.002Z,99.90
2022-09-09T01:45:37.684Z,99.90
2022-09-09T01:48:06.162Z,99.90
2022-09-09T01:50:34.683Z,99.90
2022-09-09T01:53:04.593Z,99.90
2022-09-09T01:55:38.180Z,99.90
2022-09-09T01:58:24.409Z,99.90
2022-09-09T02:01:01.890Z,99.90
2022-09-09T02:03:34.837Z,99.90
2022-09-09T02:06:12.331Z,99.90
2022-09-09T02:08:46.030Z,99.90
2022-09-09T02:11:16.867Z,99.90
2022-09-09T02:13:49.263Z,99.90
2022-09-09T02:16:23.943Z,99.90
2022-09-09T02:18:56.131Z,99.90
2022-09-09T02:21:25.591Z,99.90
2022-09-09T02:23:55.086Z,99.90
2022-09-09T02:26:24.990Z,99.90
2022-09-09T02:28:59.586Z,99.90
2022-09-09T02:31:28.063Z,99.90
2022-09-09T02:33:59.661Z,99.90
2022-09-09T02:36:31.653Z,99.90
2022-09-09T02:38:59.902Z,99.90
2022-09-09T02:41:33.366Z,99.90
2022-09-09T02:44:03.705Z,99.90
2022-09-09T02:47:00.441Z,99.90
2022-09-09T02:49:38.201Z,99.90
2022-09-09T02:52:09.426Z,99.90
2022-09-09T02:54:40.438Z,99.90
2022-09-09T02:57:13.130Z,99.90
2022-09-09T02:59:43.197Z,99.90
2022-09-09T03:02:12.380Z,99.90
2022-09-09T03:04:41.635Z,99.90
2022-09-09T03:07:10.983Z,99.90
2022-09-09T03:09:39.233Z,99.90
2022-09-09T03:12:08.125Z,99.90
2022-09-09T03:14:36.557Z,99.90
2022-09-09T03:17:07.077Z,99.90
2022-09-09T03:19:37.243Z,99.90
2022-09-09T03:22:06.334Z,99.90
2022-09-09T03:24:34.592Z,99.90
2022-09-09T03:27:02.754Z,99.90
2022-09-09T03:29:30.985Z,99.90
2022-09-09T03:31:59.234Z,99.90
2022-09-09T03:34:28.865Z,99.90
2022-09-09T03:36:57.061Z,99.90
2022-09-09T03:39:25.469Z,99.90
2022-09-09T03:41:53.693Z,99.90
2022-09-09T03:44:21.928Z,99.90
2022-09-09T03:46:50.125Z,99.90
2022-09-09T03:49:18.446Z,99.90
2022-09-09T03:51:47.990Z,99.90
2022-09-09T03:54:16.238Z,99.90
2022-09-09T03:56:44.437Z,99.90
2022-09-09T03:59:12.666Z,99.90
2022-09-09T04:01:41.167Z,99.90
2022-09-09T04:04:09.957Z,99.90
2022-09-09T04:06:38.173Z,99.90
2022-09-09T04:09:07.708Z,99.90
2022-09-09T04:11:35.992Z,99.90
2022-09-09T04:14:05.221Z,99.90
2022-09-09T04:16:33.879Z,99.90
2022-09-09T04:19:02.458Z,99.90
2022-09-09T04:21:30.689Z,99.90
2022-09-09T04:23:59.077Z,99.90
2022-09-09T04:26:28.692Z,99.90
2022-09-09T04:28:56.899Z,99.90
2022-09-09T04:31:25.647Z,99.90
2022-09-09T04:33:54.097Z,99.90
2022-09-09T04:36:22.482Z,99.90
2022-09-09T04:38:50.891Z,99.90
2022-09-09T04:41:19.130Z,99.90
2022-09-09T04:43:48.847Z,99.90
2022-09-09T04:46:18.192Z,99.90
2022-09-09T04:48:46.563Z,99.90
2022-09-09T04:51:16.581Z,99.90
2022-09-09T04:53:44.925Z,99.90
2022-09-09T04:56:15.097Z,99.90
2022-09-09T04:58:44.014Z,99.90
2022-09-09T05:01:15.047Z,99.90
2022-09-09T05:03:43.453Z,99.90
2022-09-09T05:06:13.358Z,99.90
2022-09-09T05:08:42.880Z,99.90
2022-09-09T05:11:19.368Z,99.90
2022-09-09T05:13:48.131Z,99.90
2022-09-09T05:16:18.695Z,99.90
2022-09-09T05:18:48.051Z,99.90
2022-09-09T05:21:21.222Z,99.90
2022-09-09T05:23:49.756Z,99.90
2022-09-09T05:26:20.091Z,99.90
2022-09-09T05:28:48.827Z,99.90
2022-09-09T05:31:19.957Z,99.90
2022-09-09T05:33:50.417Z,99.90
2022-09-09T05:36:21.113Z,99.90
2022-09-09T05:38:50.274Z,99.90
2022-09-09T05:41:20.447Z,99.90
2022-09-09T05:43:49.853Z,99.90
2022-09-09T05:46:22.296Z,99.90
2022-09-09T05:48:52.527Z,99.90
2022-09-09T05:51:23.637Z,99.90
2022-09-09T05:53:52.591Z,99.90
2022-09-09T05:56:22.940Z,99.90
2022-09-09T05:58:52.837Z,99.90
2022-09-09T06:01:24.594Z,99.90
2022-09-09T06:03:53.692Z,99.90
2022-09-09T06:06:24.003Z,99.90
2022-09-09T06:08:54.397Z,99.90
2022-09-09T06:11:24.484Z,99.90
2022-09-09T06:13:54.897Z,99.90
2022-09-09T06:16:26.344Z,99.90
2022-09-09T06:18:55.418Z,99.90
2022-09-09T06:21:25.258Z,99.90
2022-09-09T06:23:57.798Z,99.90
2022-09-09T06:26:31.601Z,99.90
2022-09-09T06:29:01.083Z,99.90
2022-09-09T06:31:32.287Z,99.90
2022-09-09T06:34:01.536Z,99.90
2022-09-09T06:36:32.073Z,98.40
2022-09-09T06:39:00.988Z,94.50
2022-09-09T06:41:30.839Z,91.10
2022-09-09T06:43:59.471Z,89.80
2022-09-09T06:46:33.970Z,85.10
2022-09-09T06:49:03.469Z,83.50
2022-09-09T06:51:33.598Z,79.70
2022-09-09T06:54:03.428Z,83.70
2022-09-09T06:56:34.111Z,80.80
2022-09-09T06:59:05.111Z,79.90
2022-09-09T07:01:36.919Z,75.80
2022-09-09T07:04:08.692Z,68.30
2022-09-09T07:06:39.043Z,67.70
2022-09-09T07:09:09.502Z,63.00
2022-09-09T07:11:40.980Z,60.00
2022-09-09T07:14:09.890Z,63.50
2022-09-09T07:16:39.540Z,67.00
2022-09-09T07:19:07.879Z,67.40
2022-09-09T07:21:36.454Z,69.40
2022-09-09T07:24:08.288Z,72.50
2022-09-09T07:26:37.088Z,69.10
2022-09-09T07:29:06.092Z,68.40
2022-09-09T07:31:37.622Z,64.80
2022-09-09T07:34:08.018Z,61.80
2022-09-09T07:36:39.009Z,63.40
2022-09-09T07:39:09.314Z,66.40
2022-09-09T07:41:39.842Z,70.70
2022-09-09T07:44:09.977Z,70.90
2022-09-09T07:46:40.426Z,72.20
2022-09-09T07:49:11.777Z,71.20
2022-09-09T07:51:42.897Z,68.60
2022-09-09T07:54:12.818Z,66.00
2022-09-09T07:56:42.373Z,59.80
2022-09-09T07:59:11.770Z,61.20
2022-09-09T08:01:42.615Z,59.10
2022-09-09T08:04:16.250Z,58.60
2022-09-09T08:06:47.521Z,56.50
2022-09-09T08:09:16.673Z,56.00
2022-09-09T08:11:45.170Z,58.10
2022-09-09T08:14:14.312Z,53.60
2022-09-09T08:16:44.693Z,55.50
2022-09-09T08:19:16.395Z,55.50
2022-09-09T08:21:45.785Z,53.80
2022-09-09T08:24:15.728Z,53.10
2022-09-09T08:26:46.703Z,54.10
2022-09-09T08:29:16.105Z,53.80
2022-09-09T08:31:46.665Z,53.30
2022-09-09T08:34:16.483Z,53.20
2022-09-09T08:36:46.858Z,53.40
2022-09-09T08:39:17.136Z,52.10
2022-09-09T08:42:28.049Z,53.00
2022-09-09T08:45:27.997Z,56.40
2022-09-09T08:48:17.665Z,56.40
2022-09-09T08:50:51.525Z,53.90
2022-09-09T08:53:25.797Z,54.20
2022-09-09T08:55:56.326Z,55.10
2022-09-09T08:58:29.358Z,54.80
2022-09-09T09:01:12.197Z,53.90
2022-09-09T09:03:49.501Z,55.50
2022-09-09T09:06:35.497Z,52.20
2022-09-09T09:09:07.961Z,49.70
2022-09-09T09:11:41.773Z,49.70
2022-09-09T09:14:14.256Z,48.90
2022-09-09T09:16:51.901Z,50.90
2022-09-09T09:19:23.788Z,50.30
2022-09-09T09:21:59.643Z,48.20
2022-09-09T09:24:34.105Z,47.30
2022-09-09T09:27:10.000Z,47.80
2022-09-09T09:29:56.732Z,46.30
2022-09-09T09:32:30.934Z,47.30
2022-09-09T09:35:02.152Z,45.30
2022-09-09T09:37:34.960Z,46.10
2022-09-09T09:40:11.632Z,48.10
2022-09-09T09:42:49.246Z,47.00
2022-09-09T09:45:23.000Z,47.40
2022-09-09T09:48:05.381Z,47.70
2022-09-09T09:50:36.164Z,45.60
2022-09-09T09:53:09.200Z,42.90
2022-09-09T09:55:39.034Z,46.80
2022-09-09T09:58:08.846Z,45.20
2022-09-09T10:00:38.144Z,48.10
2022-09-09T10:03:22.333Z,49.50
2022-09-09T10:05:50.586Z,47.00
2022-09-09T10:08:20.893Z,46.50
2022-09-09T10:11:00.454Z,45.50
2022-09-09T10:13:33.501Z,48.80
2022-09-09T10:16:15.988Z,50.90
2022-09-09T10:18:56.419Z,52.70
2022-09-09T10:21:39.038Z,55.80
2022-09-09T10:24:45.469Z,57.40
2022-09-09T10:27:21.652Z,59.00
2022-09-09T10:30:09.938Z,58.50
2022-09-09T10:32:48.455Z,60.80
2022-09-09T10:35:28.891Z,60.90
2022-09-09T10:38:19.212Z,60.70
2022-09-09T10:41:09.196Z,59.20
2022-09-09T10:44:09.270Z,59.10
2022-09-09T10:46:52.621Z,59.70
2022-09-09T10:49:34.300Z,58.10
2022-09-09T10:52:11.915Z,55.70
2022-09-09T10:54:55.916Z,55.40
2022-09-09T10:57:33.074Z,53.10
2022-09-09T11:00:06.584Z,53.00
2022-09-09T11:02:36.331Z,50.50
2022-09-09T11:05:09.548Z,51.70
2022-09-09T11:07:44.214Z,50.10
2022-09-09T11:10:26.152Z,53.00
2022-09-09T11:13:02.015Z,54.30
2022-09-09T11:15:37.399Z,56.40
2022-09-09T11:18:08.778Z,57.20
2022-09-09T11:20:37.862Z,55.70
2022-09-09T11:23:11.650Z,53.90
2022-09-09T11:25:42.882Z,50.90
2022-09-09T11:28:38.983Z,52.40
2022-09-09T11:31:22.308Z,52.00
2022-09-09T11:34:19.859Z,53.40
2022-09-09T11:37:03.238Z,57.40
2022-09-09T11:39:55.855Z,55.40
2022-09-09T11:42:26.492Z,50.70
2022-09-09T11:44:57.825Z,50.50
2022-09-09T11:47:30.605Z,52.20
2022-09-09T11:50:11.287Z,55.00
2022-09-09T11:52:43.333Z,56.50
2022-09-09T11:55:14.042Z,58.90
2022-09-09T11:57:48.949Z,62.80
2022-09-09T12:00:41.262Z,59.20
2022-09-09T12:03:36.100Z,56.70
2022-09-09T12:06:14.500Z,59.20
2022-09-09T12:08:45.886Z,59.70
2022-09-09T12:11:25.479Z,61.40
2022-09-09T12:13:56.007Z,61.50
2022-09-09T12:16:35.493Z,58.00
2022-09-09T12:19:16.246Z,56.00
2022-09-09T12:21:50.627Z,53.40
2022-09-09T12:24:26.346Z,53.40
2022-09-09T12:27:02.661Z,53.90
2022-09-09T12:29:40.689Z,51.70
2022-09-09T12:32:15.244Z,49.20
2022-09-09T12:34:46.405Z,48.20
2022-09-09T12:37:21.453Z,49.90
2022-09-09T12:39:54.462Z,51.40
2022-09-09T12:42:24.173Z,53.70
2022-09-09T12:44:59.813Z,57.80
2022-09-09T12:47:37.245Z,61.00
2022-09-09T12:50:05.997Z,62.10
2022-09-09T12:52:38.379Z,61.00
2022-09-09T12:55:09.471Z,59.50
2022-09-09T12:57:41.238Z,58.60
2022-09-09T13:00:16.800Z,60.80
2022-09-09T13:02:52.535Z,59.30
2022-09-09T13:05:23.935Z,54.20
2022-09-09T13:07:52.641Z,54.00
2022-09-09T13:10:36.810Z,50.50
2022-09-09T13:13:17.106Z,49.50
2022-09-09T13:15:53.591Z,53.20
2022-09-09T13:18:26.107Z,50.40
2022-09-09T13:20:54.982Z,49.00
2022-09-09T13:23:24.006Z,50.00
2022-09-09T13:25:57.119Z,50.60
2022-09-09T13:28:27.266Z,52.10
2022-09-09T13:31:03.945Z,53.30
2022-09-09T13:33:35.887Z,53.00
2022-09-09T13:36:06.454Z,53.50
2022-09-09T13:38:39.382Z,56.20
2022-09-09T13:41:09.139Z,56.70
2022-09-09T13:43:40.530Z,57.20
2022-09-09T13:46:27.328Z,57.90
2022-09-09T13:49:01.596Z,58.60
2022-09-09T13:51:38.346Z,60.20
2022-09-09T13:54:08.339Z,61.60
2022-09-09T13:56:37.411Z,59.90
2022-09-09T13:59:07.480Z,64.40
2022-09-09T14:01:36.185Z,57.80
2022-09-09T14:04:07.614Z,59.10
2022-09-09T14:06:38.310Z,58.20
2022-09-09T14:09:06.605Z,56.00
2022-09-09T14:11:34.938Z,57.50
2022-09-09T14:14:03.233Z,57.10
2022-09-09T14:16:31.730Z,55.70
2022-09-09T14:19:00.290Z,55.20
2022-09-09T14:21:30.446Z,56.70
2022-09-09T14:23:59.435Z,59.70
2022-09-09T14:26:29.963Z,60.80
2022-09-09T14:28:58.693Z,62.00
2022-09-09T14:31:27.398Z,61.60
2022-09-09T14:33:56.005Z,60.00
2022-09-09T14:36:25.409Z,62.00
2022-09-09T14:38:55.294Z,62.40
2022-09-09T14:41:24.625Z,62.60
2022-09-09T14:43:53.028Z,62.60
2022-09-09T14:46:22.707Z,60.70
2022-09-09T14:48:51.103Z,60.80
2022-09-09T14:51:23.211Z,63.30
2022-09-09T14:53:56.147Z,62.20
2022-09-09T14:56:27.380Z,62.20
2022-09-09T14:58:56.368Z,59.60
2022-09-09T15:01:28.263Z,61.80
2022-09-09T15:03:59.574Z,61.90
2022-09-09T15:06:30.179Z,60.90
2022-09-09T15:08:59.977Z,61.30
2022-09-09T15:11:31.525Z,63.10
2022-09-09T15:14:00.414Z,64.30
2022-09-09T15:16:30.483Z,64.30
2022-09-09T15:19:00.261Z,65.60
2022-09-09T15:21:30.169Z,65.60
2022-09-09T15:24:00.282Z,66.50
2022-09-09T15:26:29.399Z,66.70
2022-09-09T15:29:00.424Z,68.40
2022-09-09T15:31:31.518Z,65.70
2022-09-09T15:34:02.701Z,64.30
2022-09-09T15:36:33.119Z,64.50
2022-09-09T15:39:04.556Z,64.40
2022-09-09T15:41:34.450Z,65.20
2022-09-09T15:44:03.621Z,64.20
2022-09-09T15:46:34.122Z,64.40
2022-09-09T15:49:07.493Z,66.00
2022-09-09T15:51:44.586Z,67.70
2022-09-09T15:54:17.938Z,69.30
2022-09-09T15:56:47.594Z,71.00
2022-09-09T15:59:15.813Z,73.50
2022-09-09T16:01:45.182Z,75.00
2022-09-09T16:04:13.556Z,76.40
2022-09-09T16:06:42.006Z,77.50
2022-09-09T16:09:11.263Z,77.70
2022-09-09T16:11:41.723Z,78.20
2022-09-09T16:14:10.076Z,79.40
2022-09-09T16:16:38.369Z,80.30
2022-09-09T16:19:10.467Z,81.70
2022-09-09T16:21:41.193Z,82.10
2022-09-09T16:24:10.789Z,83.10
2022-09-09T16:26:43.994Z,84.40
2022-09-09T16:29:12.394Z,84.20
2022-09-09T16:31:41.650Z,83.40
2022-09-09T16:34:10.688Z,84.70
2022-09-09T16:36:41.473Z,85.60
2022-09-09T16:39:11.490Z,86.10
2022-09-09T16:41:42.657Z,88.80
2022-09-09T16:44:12.530Z,90.20
2022-09-09T16:46:42.570Z,89.80
2022-09-09T16:49:13.010Z,91.10
2022-09-09T16:51:43.184Z,90.10
2022-09-09T16:54:13.080Z,87.30
2022-09-09T16:56:44.564Z,87.30
2022-09-09T16:59:14.632Z,88.40
2022-09-09T17:01:44.866Z,90.20
2022-09-09T17:04:17.249Z,90.30
2022-09-09T17:06:50.278Z,91.10
2022-09-09T17:09:19.558Z,91.10
2022-09-09T17:11:51.811Z,91.00
2022-09-09T17:14:21.570Z,90.10
2022-09-09T17:16:50.166Z,90.60
2022-09-09T17:19:18.739Z,91.40
2022-09-09T17:22:15.615Z,91.90
2022-09-09T17:24:36.543Z,92.70
2022-09-09T17:27:06.593Z,93.10
2022-09-09T17:29:37.001Z,92.70
2022-09-09T17:32:06.486Z,92.90
2022-09-09T17:34:35.193Z,93.90
2022-09-09T17:37:03.485Z,94.00
2022-09-09T17:39:31.883Z,94.60
2022-09-09T17:42:00.223Z,95.00
2022-09-09T17:44:31.660Z,95.40
2022-09-09T17:47:00.615Z,96.40
2022-09-09T17:49:28.997Z,97.00
2022-09-09T17:51:57.614Z,97.30
2022-09-09T17:54:25.905Z,97.70
2022-09-09T17:56:54.415Z,98.30
2022-09-09T17:59:22.733Z,98.60
2022-09-09T18:01:53.129Z,98.30
2022-09-09T18:04:21.656Z,98.60
2022-09-09T18:06:51.469Z,98.30
2022-09-09T18:09:23.314Z,98.10
2022-09-09T18:11:54.514Z,98.60
2022-09-09T18:14:25.434Z,99.30
2022-09-09T18:16:55.460Z,99.90
2022-09-09T18:19:25.706Z,99.30
2022-09-09T18:21:57.439Z,98.60
2022-09-09T18:24:28.610Z,98.30
2022-09-09T18:26:56.866Z,98.00
2022-09-09T18:29:26.413Z,97.50
2022-09-09T18:31:57.327Z,97.60
2022-09-09T18:34:28.687Z,98.50
2022-09-09T18:36:57.750Z,99.10
2022-09-09T18:39:28.413Z,99.90
2022-09-09T18:41:59.660Z,99.90
2022-09-09T18:44:30.271Z,99.90
2022-09-09T18:47:00.342Z,99.90
2022-09-09T18:49:29.882Z,99.90
2022-09-09T18:51:59.354Z,99.90
2022-09-09T18:54:30.542Z,99.90
2022-09-09T18:56:59.613Z,99.90
2022-09-09T18:59:29.326Z,99.90
2022-09-09T19:01:59.368Z,99.90
2022-09-09T19:04:28.131Z,99.90
2022-09-09T19:06:59.764Z,99.90
2022-09-09T19:09:31.254Z,99.90
2022-09-09T19:12:01.374Z,99.90
2022-09-09T19:14:30.729Z,99.90
2022-09-09T19:17:00.897Z,99.90
2022-09-09T19:19:31.277Z,99.90
2022-09-09T19:22:00.185Z,99.90
2022-09-09T19:24:30.443Z,99.90
2022-09-09T19:27:02.841Z,99.90
2022-09-09T19:29:33.151Z,99.90
2022-09-09T19:32:49.687Z,99.90
2022-09-09T19:34:52.475Z,99.90
2022-09-09T19:37:20.952Z,99.90
2022-09-09T19:39:50.419Z,99.90
2022-09-09T19:42:21.819Z,99.90
2022-09-09T19:44:50.934Z,99.90
2022-09-09T19:47:21.366Z,99.90
2022-09-09T19:49:50.504Z,99.90
2022-09-09T19:52:19.547Z,99.90
2022-09-09T19:54:49.738Z,99.90
2022-09-09T19:57:20.382Z,99.90
2022-09-09T19:59:49.076Z,99.90
2022-09-09T20:02:18.585Z,99.90
2022-09-09T20:04:48.902Z,99.90
2022-09-09T20:07:17.615Z,99.90
2022-09-09T20:09:45.896Z,99.90
2022-09-09T20:12:17.128Z,99.90
2022-09-09T20:14:45.410Z,99.90
2022-09-09T20:17:14.889Z,99.90
2022-09-09T20:19:43.332Z,99.90
2022-09-09T20:22:13.181Z,99.90
2022-09-09T20:24:44.113Z,99.90
2022-09-09T20:27:12.879Z,99.90
2022-09-09T20:29:41.108Z,99.90
2022-09-09T20:32:09.600Z,99.90
2022-09-09T20:34:37.951Z,99.90
2022-09-09T20:37:06.738Z,99.90
2022-09-09T20:39:37.344Z,99.90
2022-09-09T20:42:06.047Z,99.90
2022-09-09T20:44:34.334Z,99.90
2022-09-09T20:47:06.530Z,99.90
2022-09-09T20:49:36.289Z,99.90
2022-09-09T20:52:05.014Z,99.90
2022-09-09T20:54:35.306Z,99.90
2022-09-09T20:57:07.189Z,99.90
2022-09-09T20:59:35.948Z,99.90
2022-09-09T21:02:04.679Z,99.90
2022-09-09T21:04:33.110Z,99.90
2022-09-09T21:07:02.633Z,99.90
2022-09-09T21:09:31.190Z,99.90
2022-09-09T21:11:59.476Z,99.90
2022-09-09T21:14:29.334Z,99.90
2022-09-09T21:16:57.915Z,99.90
2022-09-09T21:19:26.282Z,99.90
2022-09-09T21:21:54.609Z,99.90
2022-09-09T21:24:22.896Z,99.90
2022-09-09T21:26:51.170Z,99.90
2022-09-09T21:29:19.473Z,99.90
2022-09-09T21:31:49.217Z,99.90
2022-09-09T21:34:18.528Z,99.90
2022-09-09T21:36:46.830Z,99.90
2022-09-09T21:39:15.118Z,99.90
2022-09-09T21:41:43.661Z,99.90
2022-09-09T21:44:14.515Z,99.90
2022-09-09T21:46:44.067Z,99.90
2022-09-09T21:49:14.187Z,99.90
2022-09-09T21:51:42.746Z,99.90
2022-09-09T21:54:11.074Z,99.90
2022-09-09T21:56:39.667Z,99.90
2022-09-09T21:59:09.984Z,99.90
2022-09-09T22:01:40.356Z,99.90
2022-09-09T22:04:08.699Z,99.90
2022-09-09T22:06:39.608Z,99.90
2022-09-09T22:09:07.882Z,99.90
2022-09-09T22:11:36.131Z,99.90
2022-09-09T22:14:04.496Z,99.90
2022-09-09T22:16:32.985Z,99.90
2022-09-09T22:19:02.566Z,99.90
2022-09-09T22:21:33.085Z,99.90
2022-09-09T22:24:06.825Z,99.90
2022-09-09T22:26:37.728Z,99.90
2022-09-09T22:29:07.015Z,99.90
2022-09-09T22:31:36.180Z,99.90
2022-09-09T22:34:05.271Z,99.90
2022-09-09T22:36:34.370Z,99.90
2022-09-09T22:39:04.677Z,99.90
2022-09-09T22:41:34.008Z,99.90
2022-09-09T22:44:02.470Z,99.90
2022-09-09T22:46:31.120Z,99.90
2022-09-09T22:48:59.439Z,99.90
2022-09-09T22:51:27.764Z,99.90
2022-09-09T22:53:57.328Z,99.90
2022-09-09T22:56:27.073Z,99.90
2022-09-09T22:58:57.214Z,99.90
2022-09-09T23:01:27.355Z,99.90
2022-09-09T23:03:59.287Z,99.90
2022-09-09T23:06:28.889Z,99.90
2022-09-09T23:08:59.786Z,99.90
2022-09-09T23:11:31.899Z,99.90
2022-09-09T23:14:01.560Z,99.90
2022-09-09T23:16:32.981Z,99.90
2022-09-09T23:19:02.074Z,99.90
2022-09-09T23:21:31.232Z,99.90
2022-09-09T23:24:01.012Z,99.90
2022-09-09T23:26:30.728Z,99.90
2022-09-09T23:28:59.931Z,99.90
2022-09-09T23:31:30.809Z,99.90
2022-09-09T23:34:00.694Z,99.90
2022-09-09T23:36:31.091Z,99.90
2022-09-09T23:39:00.393Z,99.90
2022-09-09T23:41:30.356Z,99.90
2022-09-09T23:43:59.101Z,99.90
2022-09-09T23:46:29.977Z,99.90
2022-09-09T23:48:59.257Z,99.90
2022-09-09T23:51:30.758Z,99.90
2022-09-09T23:54:02.056Z,99.90
2022-09-09T23:56:34.297Z,99.90
2022-09-09T23:59:02.800Z,99.90
